sensor_id;sensor_type;location;lat;lon;timestamp;temperature;humidity
20891;DHT22;10605;52.968;8.844;2022-10-16T00:01:38;12.80;99.90
20891;DHT22;10605;52.968;8.844;2022-10-16T00:04:04;12.80;99.90
20891;DHT22;10605;52.968;8.844;2022-10-16T00:06:31;12.70;99.90
20891;DHT22;10605;52.968;8.844;2022-10-16T00:08:57;12.70;99.90
20891;DHT22;10605;52.968;8.844;2022-10-16T00:11:41;12.70;99.90
20891;DHT22;10605;52.968;8.844;2022-10-16T00:14:15;12.60;99.90
20891;DHT22;10605;52.968;8.844;2022-10-16T00:16:41;12.60;99.90
20891;DHT22;10605;52.968;8.844;2022-10-16T00:19:07;12.60;99.90
20891;DHT22;10605;52.968;8.844;2022-10-16T00:21:40;12.60;99.90
20891;DHT22;10605;52.968;8.844;2022-10-16T00:24:10;12.60;99.90
20891;DHT22;10605;52.968;8.844;2022-10-16T00:26:37;12.50;99.90
20891;DHT22;10605;52.968;8.844;2022-10-16T00:29:03;12.50;99.90
20891;DHT22;10605;52.968;8.844;2022-10-16T00:31:30;12.50;99.90
20891;DHT22;10605;52.968;8.844;2022-10-16T00:33:58;12.40;99.90
20891;DHT22;10605;52.968;8.844;2022-10-16T00:36:26;12.40;99.90
20891;DHT22;10605;52.968;8.844;2022-10-16T00:38:57;12.30;99.90
20891;DHT22;10605;52.968;8.844;2022-10-16T00:41:27;12.40;99.90
20891;DHT22;10605;52.968;8.844;2022-10-16T00:44:01;12.40;99.90
20891;DHT22;10605;52.968;8.844;2022-10-16T00:46:38;12.40;99.90
20891;DHT22;10605;52.968;8.844;2022-10-16T00:49:15;12.40;99.90
20891;DHT22;10605;52.968;8.844;2022-10-16T00:51:50;12.40;99.90
20891;DHT22;10605;52.968;8.844;2022-10-16T00:54:26;12.40;99.90
20891;DHT22;10605;52.968;8.844;2022-10-16T00:56:58;12.40;99.90
20891;DHT22;10605;52.968;8.844;2022-10-16T00:59:33;12.30;99.90
20891;DHT22;10605;52.968;8.844;2022-10-16T01:02:00;12.30;99.90
20891;DHT22;10605;52.968;8.844;2022-10-16T01:04:34;12.30;99.90
20891;DHT22;10605;52.968;8.844;2022-10-16T01:07:14;12.30;99.90
20891;DHT22;10605;52.968;8.844;2022-10-16T01:13:18;12.20;99.90
20891;DHT22;10605;52.968;8.844;2022-10-16T01:15:47;12.30;99.90
20891;DHT22;10605;52.968;8.844;2022-10-16T01:21:37;12.20;99.90
20891;DHT22;10605;52.968;8.844;2022-10-16T01:24:32;12.30;99.90
20891;DHT22;10605;52.968;8.844;2022-10-16T01:27:26;12.20;99.90
20891;DHT22;10605;52.968;8.844;2022-10-16T01:29:58;12.20;99.90
20891;DHT22;10605;52.968;8.844;2022-10-16T01:35:40;12.10;99.90
20891;DHT22;10605;52.968;8.844;2022-10-16T01:38:17;12.10;99.90
20891;DHT22;10605;52.968;8.844;2022-10-16T01:40:51;12.10;99.90
20891;DHT22;10605;52.968;8.844;2022-10-16T01:43:22;12.00;99.90
20891;DHT22;10605;52.968;8.844;2022-10-16T01:45:52;12.10;99.90
20891;DHT22;10605;52.968;8.844;2022-10-16T01:48:24;12.10;99.90
20891;DHT22;10605;52.968;8.844;2022-10-16T01:51:10;12.10;99.90
20891;DHT22;10605;52.968;8.844;2022-10-16T01:53:41;12.00;99.90
20891;DHT22;10605;52.968;8.844;2022-10-16T01:56:12;12.10;99.90
20891;DHT22;10605;52.968;8.844;2022-10-16T01:58:44;12.00;99.90
20891;DHT22;10605;52.968;8.844;2022-10-16T02:01:11;11.90;99.90
20891;DHT22;10605;52.968;8.844;2022-10-16T02:03:40;11.90;99.90
20891;DHT22;10605;52.968;8.844;2022-10-16T02:06:08;11.90;99.90
20891;DHT22;10605;52.968;8.844;2022-10-16T02:08:36;11.90;99.90
20891;DHT22;10605;52.968;8.844;2022-10-16T02:11:06;11.80;99.90
20891;DHT22;10605;52.968;8.844;2022-10-16T02:13:53;11.80;99.90
20891;DHT22;10605;52.968;8.844;2022-10-16T02:16:20;11.80;99.90
20891;DHT22;10605;52.968;8.844;2022-10-16T02:18:46;11.80;99.90
20891;DHT22;10605;52.968;8.844;2022-10-16T02:22:05;11.80;99.90
20891;DHT22;10605;52.968;8.844;2022-10-16T02:30:48;11.80;99.90
20891;DHT22;10605;52.968;8.844;2022-10-16T02:32:48;11.80;99.90
20891;DHT22;10605;52.968;8.844;2022-10-16T02:35:20;11.80;99.90
20891;DHT22;10605;52.968;8.844;2022-10-16T02:37:50;11.80;99.90
20891;DHT22;10605;52.968;8.844;2022-10-16T02:40:20;11.80;99.90
20891;DHT22;10605;52.968;8.844;2022-10-16T02:42:55;11.70;99.90
20891;DHT22;10605;52.968;8.844;2022-10-16T02:45:21;11.70;99.90
20891;DHT22;10605;52.968;8.844;2022-10-16T02:47:51;11.70;99.90
20891;DHT22;10605;52.968;8.844;2022-10-16T02:50:22;11.70;99.90
20891;DHT22;10605;52.968;8.844;2022-10-16T02:52:51;11.60;99.90
20891;DHT22;10605;52.968;8.844;2022-10-16T02:55:40;11.60;99.90
20891;DHT22;10605;52.968;8.844;2022-10-16T02:58:10;11.60;99.90
20891;DHT22;10605;52.968;8.844;2022-10-16T03:00:36;11.70;99.90
20891;DHT22;10605;52.968;8.844;2022-10-16T03:03:04;11.60;99.90
20891;DHT22;10605;52.968;8.844;2022-10-16T03:05:30;11.60;99.90
20891;DHT22;10605;52.968;8.844;2022-10-16T03:07:58;11.60;99.90
20891;DHT22;10605;52.968;8.844;2022-10-16T03:10:31;11.60;99.90
20891;DHT22;10605;52.968;8.844;2022-10-16T03:13:00;11.60;99.90
20891;DHT22;10605;52.968;8.844;2022-10-16T03:15:28;11.70;99.90
20891;DHT22;10605;52.968;8.844;2022-10-16T03:18:00;11.60;99.90
20891;DHT22;10605;52.968;8.844;2022-10-16T03:20:26;11.70;99.90
20891;DHT22;10605;52.968;8.844;2022-10-16T03:22:52;11.70;99.90
20891;DHT22;10605;52.968;8.844;2022-10-16T03:25:18;11.80;99.90
20891;DHT22;10605;52.968;8.844;2022-10-16T03:27:46;11.80;99.90
20891;DHT22;10605;52.968;8.844;2022-10-16T03:30:12;11.80;99.90
20891;DHT22;10605;52.968;8.844;2022-10-16T03:32:40;11.90;99.90
20891;DHT22;10605;52.968;8.844;2022-10-16T03:35:06;11.90;99.90
20891;DHT22;10605;52.968;8.844;2022-10-16T03:37:32;12.00;99.90
20891;DHT22;10605;52.968;8.844;2022-10-16T03:39:58;12.00;99.90
20891;DHT22;10605;52.968;8.844;2022-10-16T03:42:24;12.00;99.90
20891;DHT22;10605;52.968;8.844;2022-10-16T03:45:05;12.00;99.90
20891;DHT22;10605;52.968;8.844;2022-10-16T03:47:36;12.00;99.90
20891;DHT22;10605;52.968;8.844;2022-10-16T03:50:03;12.00;99.90
20891;DHT22;10605;52.968;8.844;2022-10-16T03:52:32;12.00;99.90
20891;DHT22;10605;52.968;8.844;2022-10-16T03:54:58;12.10;99.90
20891;DHT22;10605;52.968;8.844;2022-10-16T03:57:24;12.00;99.90
20891;DHT22;10605;52.968;8.844;2022-10-16T03:59:52;12.10;99.90
20891;DHT22;10605;52.968;8.844;2022-10-16T04:02:21;12.10;99.90
20891;DHT22;10605;52.968;8.844;2022-10-16T04:04:49;12.10;99.90
20891;DHT22;10605;52.968;8.844;2022-10-16T04:07:15;12.20;99.90
20891;DHT22;10605;52.968;8.844;2022-10-16T04:09:41;12.20;99.90
20891;DHT22;10605;52.968;8.844;2022-10-16T04:12:07;12.20;99.90
20891;DHT22;10605;52.968;8.844;2022-10-16T04:14:33;12.20;99.90
20891;DHT22;10605;52.968;8.844;2022-10-16T04:16:58;12.30;99.90
20891;DHT22;10605;52.968;8.844;2022-10-16T04:19:24;12.30;99.90
20891;DHT22;10605;52.968;8.844;2022-10-16T04:21:52;12.30;99.90
20891;DHT22;10605;52.968;8.844;2022-10-16T04:24:18;12.30;99.90
20891;DHT22;10605;52.968;8.844;2022-10-16T04:26:47;12.30;99.90
20891;DHT22;10605;52.968;8.844;2022-10-16T04:29:13;12.30;99.90
20891;DHT22;10605;52.968;8.844;2022-10-16T04:31:40;12.30;99.90
20891;DHT22;10605;52.968;8.844;2022-10-16T04:34:06;12.30;99.90
20891;DHT22;10605;52.968;8.844;2022-10-16T04:36:32;12.30;99.90
20891;DHT22;10605;52.968;8.844;2022-10-16T04:38:57;12.30;99.90
20891;DHT22;10605;52.968;8.844;2022-10-16T04:41:23;12.30;99.90
20891;DHT22;10605;52.968;8.844;2022-10-16T04:43:49;12.20;99.90
20891;DHT22;10605;52.968;8.844;2022-10-16T04:46:14;12.20;99.90
20891;DHT22;10605;52.968;8.844;2022-10-16T04:48:42;12.20;99.90
20891;DHT22;10605;52.968;8.844;2022-10-16T04:51:08;12.20;99.90
20891;DHT22;10605;52.968;8.844;2022-10-16T04:53:34;12.20;99.90
20891;DHT22;10605;52.968;8.844;2022-10-16T04:55:59;12.20;99.90
20891;DHT22;10605;52.968;8.844;2022-10-16T04:58:25;12.10;99.90
20891;DHT22;10605;52.968;8.844;2022-10-16T05:00:54;12.10;99.90
20891;DHT22;10605;52.968;8.844;2022-10-16T05:03:20;12.10;99.90
20891;DHT22;10605;52.968;8.844;2022-10-16T05:05:46;12.20;99.90
20891;DHT22;10605;52.968;8.844;2022-10-16T05:08:14;12.10;99.90
20891;DHT22;10605;52.968;8.844;2022-10-16T05:10:44;12.10;99.90
20891;DHT22;10605;52.968;8.844;2022-10-16T05:13:10;12.10;99.90
20891;DHT22;10605;52.968;8.844;2022-10-16T05:15:36;12.10;99.90
20891;DHT22;10605;52.968;8.844;2022-10-16T05:18:05;12.10;99.90
20891;DHT22;10605;52.968;8.844;2022-10-16T05:20:30;12.10;99.90
20891;DHT22;10605;52.968;8.844;2022-10-16T05:22:56;12.10;99.90
20891;DHT22;10605;52.968;8.844;2022-10-16T05:25:22;12.20;99.90
20891;DHT22;10605;52.968;8.844;2022-10-16T05:27:48;12.20;99.90
20891;DHT22;10605;52.968;8.844;2022-10-16T05:30:15;12.10;99.90
20891;DHT22;10605;52.968;8.844;2022-10-16T05:35:24;12.20;99.90
20891;DHT22;10605;52.968;8.844;2022-10-16T05:37:51;12.30;99.90
20891;DHT22;10605;52.968;8.844;2022-10-16T05:40:17;12.30;99.90
20891;DHT22;10605;52.968;8.844;2022-10-16T05:42:43;12.30;99.90
20891;DHT22;10605;52.968;8.844;2022-10-16T05:45:10;12.30;99.90
20891;DHT22;10605;52.968;8.844;2022-10-16T05:47:37;12.40;99.90
20891;DHT22;10605;52.968;8.844;2022-10-16T05:50:06;12.40;99.90
20891;DHT22;10605;52.968;8.844;2022-10-16T05:52:32;12.40;99.90
20891;DHT22;10605;52.968;8.844;2022-10-16T05:54:57;12.40;99.90
20891;DHT22;10605;52.968;8.844;2022-10-16T05:57:23;12.50;99.90
20891;DHT22;10605;52.968;8.844;2022-10-16T05:59:57;12.40;99.90
20891;DHT22;10605;52.968;8.844;2022-10-16T06:02:22;12.50;99.90
20891;DHT22;10605;52.968;8.844;2022-10-16T06:04:48;12.50;99.90
20891;DHT22;10605;52.968;8.844;2022-10-16T06:07:14;12.50;99.90
20891;DHT22;10605;52.968;8.844;2022-10-16T06:09:40;12.50;99.90
20891;DHT22;10605;52.968;8.844;2022-10-16T06:12:06;12.50;99.90
20891;DHT22;10605;52.968;8.844;2022-10-16T06:14:32;12.60;99.90
20891;DHT22;10605;52.968;8.844;2022-10-16T06:16:57;12.70;99.90
20891;DHT22;10605;52.968;8.844;2022-10-16T06:19:23;12.80;99.90
20891;DHT22;10605;52.968;8.844;2022-10-16T06:21:56;12.80;99.90
20891;DHT22;10605;52.968;8.844;2022-10-16T06:24:25;12.90;99.90
20891;DHT22;10605;52.968;8.844;2022-10-16T06:26:51;12.90;99.90
20891;DHT22;10605;52.968;8.844;2022-10-16T06:29:17;13.00;99.90
20891;DHT22;10605;52.968;8.844;2022-10-16T06:31:43;13.00;99.90
20891;DHT22;10605;52.968;8.844;2022-10-16T06:34:10;13.00;99.90
20891;DHT22;10605;52.968;8.844;2022-10-16T06:36:37;13.00;99.90
20891;DHT22;10605;52.968;8.844;2022-10-16T06:39:04;13.10;99.90
20891;DHT22;10605;52.968;8.844;2022-10-16T06:41:34;13.10;99.90
20891;DHT22;10605;52.968;8.844;2022-10-16T06:44:04;13.20;99.90
20891;DHT22;10605;52.968;8.844;2022-10-16T06:46:41;13.30;99.90
20891;DHT22;10605;52.968;8.844;2022-10-16T06:49:13;13.40;99.90
20891;DHT22;10605;52.968;8.844;2022-10-16T06:58:48;14.20;99.90
20891;DHT22;10605;52.968;8.844;2022-10-16T07:07:58;14.60;99.90
20891;DHT22;10605;52.968;8.844;2022-10-16T07:25:21;16.10;99.90
20891;DHT22;10605;52.968;8.844;2022-10-16T07:34:40;17.50;99.90
20891;DHT22;10605;52.968;8.844;2022-10-16T07:37:12;18.50;99.90
20891;DHT22;10605;52.968;8.844;2022-10-16T07:46:03;18.90;99.90
20891;DHT22;10605;52.968;8.844;2022-10-16T07:48:31;19.30;99.90
20891;DHT22;10605;52.968;8.844;2022-10-16T07:51:02;19.20;99.90
20891;DHT22;10605;52.968;8.844;2022-10-16T07:53:52;18.40;99.90
20891;DHT22;10605;52.968;8.844;2022-10-16T07:56:24;17.90;99.90
20891;DHT22;10605;52.968;8.844;2022-10-16T08:05:52;16.70;99.90
20891;DHT22;10605;52.968;8.844;2022-10-16T08:08:41;16.30;99.90
20891;DHT22;10605;52.968;8.844;2022-10-16T08:11:07;16.20;99.90
20891;DHT22;10605;52.968;8.844;2022-10-16T08:13:33;16.20;99.90
20891;DHT22;10605;52.968;8.844;2022-10-16T08:15:59;16.40;99.90
20891;DHT22;10605;52.968;8.844;2022-10-16T08:18:26;16.60;99.90
20891;DHT22;10605;52.968;8.844;2022-10-16T08:20:59;16.80;99.90
20891;DHT22;10605;52.968;8.844;2022-10-16T08:23:36;17.00;99.90
20891;DHT22;10605;52.968;8.844;2022-10-16T08:26:04;17.00;99.90
20891;DHT22;10605;52.968;8.844;2022-10-16T08:28:30;17.30;99.90
20891;DHT22;10605;52.968;8.844;2022-10-16T08:31:04;18.00;99.90
20891;DHT22;10605;52.968;8.844;2022-10-16T08:33:32;19.10;99.90
20891;DHT22;10605;52.968;8.844;2022-10-16T08:36:00;19.30;99.90
20891;DHT22;10605;52.968;8.844;2022-10-16T08:38:26;19.10;99.90
20891;DHT22;10605;52.968;8.844;2022-10-16T08:40:54;18.90;99.90
20891;DHT22;10605;52.968;8.844;2022-10-16T08:46:24;18.70;99.90
20891;DHT22;10605;52.968;8.844;2022-10-16T08:48:54;19.20;99.90
20891;DHT22;10605;52.968;8.844;2022-10-16T08:54:03;20.10;99.90
20891;DHT22;10605;52.968;8.844;2022-10-16T08:56:34;20.30;99.90
20891;DHT22;10605;52.968;8.844;2022-10-16T08:59:00;20.80;99.90
20891;DHT22;10605;52.968;8.844;2022-10-16T09:01:45;20.30;99.90
20891;DHT22;10605;52.968;8.844;2022-10-16T09:04:48;20.40;99.90
20891;DHT22;10605;52.968;8.844;2022-10-16T09:13:21;21.80;99.90
20891;DHT22;10605;52.968;8.844;2022-10-16T09:16:12;22.20;99.90
20891;DHT22;10605;52.968;8.844;2022-10-16T09:21:26;22.50;99.90
20891;DHT22;10605;52.968;8.844;2022-10-16T09:23:58;22.70;99.90
20891;DHT22;10605;52.968;8.844;2022-10-16T09:26:28;22.20;99.90
20891;DHT22;10605;52.968;8.844;2022-10-16T09:28:54;22.40;99.90
20891;DHT22;10605;52.968;8.844;2022-10-16T09:31:22;22.80;99.90
20891;DHT22;10605;52.968;8.844;2022-10-16T09:33:57;22.80;99.90
20891;DHT22;10605;52.968;8.844;2022-10-16T09:36:43;23.30;99.90
20891;DHT22;10605;52.968;8.844;2022-10-16T09:39:11;23.60;99.90
20891;DHT22;10605;52.968;8.844;2022-10-16T09:41:39;24.20;99.90
20891;DHT22;10605;52.968;8.844;2022-10-16T09:46:43;24.40;99.90
20891;DHT22;10605;52.968;8.844;2022-10-16T09:49:26;22.60;99.90
20891;DHT22;10605;52.968;8.844;2022-10-16T09:52:15;22.10;99.90
20891;DHT22;10605;52.968;8.844;2022-10-16T09:54:51;22.60;99.90
20891;DHT22;10605;52.968;8.844;2022-10-16T09:57:18;21.80;99.90
20891;DHT22;10605;52.968;8.844;2022-10-16T09:59:49;21.50;99.90
20891;DHT22;10605;52.968;8.844;2022-10-16T10:02:23;21.40;99.90
20891;DHT22;10605;52.968;8.844;2022-10-16T10:04:54;20.90;99.90
20891;DHT22;10605;52.968;8.844;2022-10-16T10:07:42;22.10;99.90
20891;DHT22;10605;52.968;8.844;2022-10-16T10:10:30;23.30;99.90
20891;DHT22;10605;52.968;8.844;2022-10-16T10:12:57;23.90;99.90
20891;DHT22;10605;52.968;8.844;2022-10-16T10:15:33;23.80;99.90
20891;DHT22;10605;52.968;8.844;2022-10-16T10:18:02;24.70;99.90
20891;DHT22;10605;52.968;8.844;2022-10-16T10:20:33;23.20;99.90
20891;DHT22;10605;52.968;8.844;2022-10-16T10:23:20;23.30;99.90
20891;DHT22;10605;52.968;8.844;2022-10-16T11:01:59;24.60;99.90
20891;DHT22;10605;52.968;8.844;2022-10-16T11:07:32;26.20;99.90
20891;DHT22;10605;52.968;8.844;2022-10-16T11:10:20;26.50;99.90
20891;DHT22;10605;52.968;8.844;2022-10-16T11:13:00;25.50;99.90
20891;DHT22;10605;52.968;8.844;2022-10-16T11:15:39;25.30;99.90
20891;DHT22;10605;52.968;8.844;2022-10-16T11:18:16;24.70;99.90
20891;DHT22;10605;52.968;8.844;2022-10-16T11:21:00;23.00;99.90
20891;DHT22;10605;52.968;8.844;2022-10-16T11:27:09;25.40;99.90
20891;DHT22;10605;52.968;8.844;2022-10-16T11:30:16;25.20;99.90
20891;DHT22;10605;52.968;8.844;2022-10-16T11:37:14;26.10;99.90
20891;DHT22;10605;52.968;8.844;2022-10-16T11:40:30;26.10;99.20
20891;DHT22;10605;52.968;8.844;2022-10-16T11:43:24;25.40;98.40
20891;DHT22;10605;52.968;8.844;2022-10-16T11:46:13;25.30;97.90
20891;DHT22;10605;52.968;8.844;2022-10-16T11:54:49;25.70;97.50
20891;DHT22;10605;52.968;8.844;2022-10-16T11:57:32;25.40;95.90
20891;DHT22;10605;52.968;8.844;2022-10-16T12:00:23;24.40;98.10
20891;DHT22;10605;52.968;8.844;2022-10-16T12:03:38;23.70;99.90
20891;DHT22;10605;52.968;8.844;2022-10-16T12:06:46;23.40;99.90
20891;DHT22;10605;52.968;8.844;2022-10-16T12:15:48;24.40;99.90
20891;DHT22;10605;52.968;8.844;2022-10-16T12:18:28;24.90;99.90
20891;DHT22;10605;52.968;8.844;2022-10-16T12:21:38;24.90;98.00
20891;DHT22;10605;52.968;8.844;2022-10-16T12:24:37;25.40;96.80
20891;DHT22;10605;52.968;8.844;2022-10-16T12:27:32;25.40;97.10
20891;DHT22;10605;52.968;8.844;2022-10-16T12:30:04;24.90;97.00
20891;DHT22;10605;52.968;8.844;2022-10-16T12:32:38;24.20;98.40
20891;DHT22;10605;52.968;8.844;2022-10-16T12:35:25;22.20;99.90
20891;DHT22;10605;52.968;8.844;2022-10-16T12:37:52;21.10;99.90
20891;DHT22;10605;52.968;8.844;2022-10-16T12:40:39;21.00;99.90
20891;DHT22;10605;52.968;8.844;2022-10-16T12:43:47;21.10;99.90
20891;DHT22;10605;52.968;8.844;2022-10-16T12:48:43;20.40;99.90
20891;DHT22;10605;52.968;8.844;2022-10-16T12:56:50;19.30;99.90
20891;DHT22;10605;52.968;8.844;2022-10-16T13:08:14;19.00;99.90
20891;DHT22;10605;52.968;8.844;2022-10-16T13:11:07;18.90;99.90
20891;DHT22;10605;52.968;8.844;2022-10-16T13:16:45;18.50;99.90
20891;DHT22;10605;52.968;8.844;2022-10-16T13:19:33;18.50;99.90
20891;DHT22;10605;52.968;8.844;2022-10-16T13:22:41;18.70;99.90
20891;DHT22;10605;52.968;8.844;2022-10-16T13:26:09;18.90;99.90
20891;DHT22;10605;52.968;8.844;2022-10-16T13:28:50;19.10;99.90
20891;DHT22;10605;52.968;8.844;2022-10-16T13:34:28;19.10;99.90
20891;DHT22;10605;52.968;8.844;2022-10-16T13:37:15;19.40;99.90
20891;DHT22;10605;52.968;8.844;2022-10-16T13:40:23;19.50;99.90
20891;DHT22;10605;52.968;8.844;2022-10-16T13:42:49;19.50;99.90
20891;DHT22;10605;52.968;8.844;2022-10-16T13:45:27;19.40;99.90
20891;DHT22;10605;52.968;8.844;2022-10-16T13:48:06;19.60;99.90
20891;DHT22;10605;52.968;8.844;2022-10-16T13:50:37;19.50;99.90
20891;DHT22;10605;52.968;8.844;2022-10-16T13:53:09;19.20;99.90
20891;DHT22;10605;52.968;8.844;2022-10-16T13:55:50;19.00;99.90
20891;DHT22;10605;52.968;8.844;2022-10-16T13:58:38;18.80;99.90
20891;DHT22;10605;52.968;8.844;2022-10-16T14:01:38;18.70;99.90
20891;DHT22;10605;52.968;8.844;2022-10-16T14:04:21;18.70;99.90
20891;DHT22;10605;52.968;8.844;2022-10-16T14:13:56;18.60;99.90
20891;DHT22;10605;52.968;8.844;2022-10-16T14:19:56;18.60;99.90
20891;DHT22;10605;52.968;8.844;2022-10-16T14:26:17;18.40;99.90
20891;DHT22;10605;52.968;8.844;2022-10-16T14:29:41;18.40;99.90
20891;DHT22;10605;52.968;8.844;2022-10-16T14:32:22;18.30;99.90
20891;DHT22;10605;52.968;8.844;2022-10-16T14:34:56;18.30;99.90
20891;DHT22;10605;52.968;8.844;2022-10-16T14:37:30;18.20;99.90
20891;DHT22;10605;52.968;8.844;2022-10-16T14:39:56;18.20;99.90
20891;DHT22;10605;52.968;8.844;2022-10-16T14:42:26;18.20;99.90
20891;DHT22;10605;52.968;8.844;2022-10-16T14:44:56;18.10;99.90
20891;DHT22;10605;52.968;8.844;2022-10-16T14:47:27;18.10;99.90
20891;DHT22;10605;52.968;8.844;2022-10-16T14:49:55;18.10;99.90
20891;DHT22;10605;52.968;8.844;2022-10-16T14:52:25;18.10;99.90
20891;DHT22;10605;52.968;8.844;2022-10-16T14:54:53;18.00;99.90
20891;DHT22;10605;52.968;8.844;2022-10-16T14:57:24;17.90;99.90
20891;DHT22;10605;52.968;8.844;2022-10-16T14:59:55;17.90;99.90
20891;DHT22;10605;52.968;8.844;2022-10-16T15:02:30;17.90;99.90
20891;DHT22;10605;52.968;8.844;2022-10-16T15:05:19;17.80;99.90
20891;DHT22;10605;52.968;8.844;2022-10-16T15:07:43;17.80;99.90
20891;DHT22;10605;52.968;8.844;2022-10-16T15:10:09;17.80;99.90
20891;DHT22;10605;52.968;8.844;2022-10-16T15:12:36;17.70;99.90
20891;DHT22;10605;52.968;8.844;2022-10-16T15:15:01;17.60;99.90
20891;DHT22;10605;52.968;8.844;2022-10-16T15:17:30;17.60;99.90
20891;DHT22;10605;52.968;8.844;2022-10-16T15:19:58;17.60;99.90
20891;DHT22;10605;52.968;8.844;2022-10-16T15:22:24;17.50;99.90
20891;DHT22;10605;52.968;8.844;2022-10-16T15:24:54;17.50;99.90
20891;DHT22;10605;52.968;8.844;2022-10-16T15:27:20;17.40;99.90
20891;DHT22;10605;52.968;8.844;2022-10-16T15:29:46;17.40;99.90
20891;DHT22;10605;52.968;8.844;2022-10-16T15:32:12;17.30;99.90
20891;DHT22;10605;52.968;8.844;2022-10-16T15:34:37;17.20;99.90
20891;DHT22;10605;52.968;8.844;2022-10-16T15:37:03;17.00;99.90
20891;DHT22;10605;52.968;8.844;2022-10-16T15:39:29;17.00;99.90
20891;DHT22;10605;52.968;8.844;2022-10-16T15:41:55;16.90;99.90
20891;DHT22;10605;52.968;8.844;2022-10-16T15:44:21;16.80;99.90
20891;DHT22;10605;52.968;8.844;2022-10-16T15:46:55;16.70;99.90
20891;DHT22;10605;52.968;8.844;2022-10-16T15:49:22;16.60;99.90
20891;DHT22;10605;52.968;8.844;2022-10-16T15:51:47;16.60;99.90
20891;DHT22;10605;52.968;8.844;2022-10-16T15:54:21;16.50;99.90
20891;DHT22;10605;52.968;8.844;2022-10-16T15:56:48;16.50;99.90
20891;DHT22;10605;52.968;8.844;2022-10-16T15:59:14;16.40;99.90
20891;DHT22;10605;52.968;8.844;2022-10-16T16:01:40;16.30;99.90
20891;DHT22;10605;52.968;8.844;2022-10-16T16:04:08;16.10;99.90
20891;DHT22;10605;52.968;8.844;2022-10-16T16:06:37;16.00;99.90
20891;DHT22;10605;52.968;8.844;2022-10-16T16:09:05;15.90;99.90
20891;DHT22;10605;52.968;8.844;2022-10-16T16:11:31;15.80;99.90
20891;DHT22;10605;52.968;8.844;2022-10-16T16:13:58;15.60;99.90
20891;DHT22;10605;52.968;8.844;2022-10-16T16:16:24;15.60;99.90
20891;DHT22;10605;52.968;8.844;2022-10-16T16:18:52;15.40;99.90
20891;DHT22;10605;52.968;8.844;2022-10-16T16:21:18;15.30;99.90
20891;DHT22;10605;52.968;8.844;2022-10-16T16:23:47;15.10;99.90
20891;DHT22;10605;52.968;8.844;2022-10-16T16:26:31;14.90;99.90
20891;DHT22;10605;52.968;8.844;2022-10-16T16:29:03;14.70;99.90
20891;DHT22;10605;52.968;8.844;2022-10-16T16:31:30;14.60;99.90
20891;DHT22;10605;52.968;8.844;2022-10-16T16:33:57;14.50;99.90
20891;DHT22;10605;52.968;8.844;2022-10-16T16:36:24;14.40;99.90
20891;DHT22;10605;52.968;8.844;2022-10-16T16:38:50;14.30;99.90
20891;DHT22;10605;52.968;8.844;2022-10-16T16:41:21;14.10;99.90
20891;DHT22;10605;52.968;8.844;2022-10-16T16:43:50;14.10;99.90
20891;DHT22;10605;52.968;8.844;2022-10-16T16:46:21;14.00;99.90
20891;DHT22;10605;52.968;8.844;2022-10-16T16:48:47;13.90;99.90
20891;DHT22;10605;52.968;8.844;2022-10-16T16:51:17;13.80;99.90
20891;DHT22;10605;52.968;8.844;2022-10-16T16:53:48;13.60;99.90
20891;DHT22;10605;52.968;8.844;2022-10-16T16:56:14;13.60;99.90
20891;DHT22;10605;52.968;8.844;2022-10-16T16:58:40;13.50;99.90
20891;DHT22;10605;52.968;8.844;2022-10-16T17:01:09;13.40;99.90
20891;DHT22;10605;52.968;8.844;2022-10-16T17:03:35;13.30;99.90
20891;DHT22;10605;52.968;8.844;2022-10-16T17:06:07;13.20;99.90
20891;DHT22;10605;52.968;8.844;2022-10-16T17:08:37;13.20;99.90
20891;DHT22;10605;52.968;8.844;2022-10-16T17:11:03;13.10;99.90
20891;DHT22;10605;52.968;8.844;2022-10-16T17:13:32;13.00;99.90
20891;DHT22;10605;52.968;8.844;2022-10-16T17:16:04;12.90;99.90
20891;DHT22;10605;52.968;8.844;2022-10-16T17:18:31;12.90;99.90
20891;DHT22;10605;52.968;8.844;2022-10-16T17:21:06;12.80;99.90
20891;DHT22;10605;52.968;8.844;2022-10-16T17:23:33;12.70;99.90
20891;DHT22;10605;52.968;8.844;2022-10-16T17:26:06;12.60;99.90
20891;DHT22;10605;52.968;8.844;2022-10-16T17:28:33;12.50;99.90
20891;DHT22;10605;52.968;8.844;2022-10-16T17:31:13;12.40;99.90
20891;DHT22;10605;52.968;8.844;2022-10-16T17:33:44;12.40;99.90
20891;DHT22;10605;52.968;8.844;2022-10-16T17:36:11;12.30;99.90
20891;DHT22;10605;52.968;8.844;2022-10-16T17:38:40;12.30;99.90
20891;DHT22;10605;52.968;8.844;2022-10-16T17:41:13;12.30;99.90
20891;DHT22;10605;52.968;8.844;2022-10-16T17:43:43;12.20;99.90
20891;DHT22;10605;52.968;8.844;2022-10-16T17:46:10;12.10;99.90
20891;DHT22;10605;52.968;8.844;2022-10-16T17:48:37;12.10;99.90
20891;DHT22;10605;52.968;8.844;2022-10-16T17:51:05;12.00;99.90
20891;DHT22;10605;52.968;8.844;2022-10-16T17:53:31;12.00;99.90
20891;DHT22;10605;52.968;8.844;2022-10-16T17:56:02;11.90;99.90
20891;DHT22;10605;52.968;8.844;2022-10-16T17:58:28;11.80;99.90
20891;DHT22;10605;52.968;8.844;2022-10-16T18:00:54;11.70;99.90
20891;DHT22;10605;52.968;8.844;2022-10-16T18:03:19;11.60;99.90
20891;DHT22;10605;52.968;8.844;2022-10-16T18:05:55;11.60;99.90
20891;DHT22;10605;52.968;8.844;2022-10-16T18:08:22;11.60;99.90
20891;DHT22;10605;52.968;8.844;2022-10-16T18:10:53;11.50;99.90
20891;DHT22;10605;52.968;8.844;2022-10-16T18:13:18;11.50;99.90
20891;DHT22;10605;52.968;8.844;2022-10-16T18:15:44;11.50;99.90
20891;DHT22;10605;52.968;8.844;2022-10-16T18:18:10;11.50;99.90
20891;DHT22;10605;52.968;8.844;2022-10-16T18:20:38;11.50;99.90
20891;DHT22;10605;52.968;8.844;2022-10-16T18:23:07;11.40;99.90
20891;DHT22;10605;52.968;8.844;2022-10-16T18:25:38;11.40;99.90
20891;DHT22;10605;52.968;8.844;2022-10-16T18:28:09;11.40;99.90
20891;DHT22;10605;52.968;8.844;2022-10-16T18:30:34;11.40;99.90
20891;DHT22;10605;52.968;8.844;2022-10-16T18:33:03;11.30;99.90
20891;DHT22;10605;52.968;8.844;2022-10-16T18:35:35;11.20;99.90
20891;DHT22;10605;52.968;8.844;2022-10-16T18:38:01;11.20;99.90
20891;DHT22;10605;52.968;8.844;2022-10-16T18:40:27;11.20;99.90
20891;DHT22;10605;52.968;8.844;2022-10-16T18:42:56;11.20;99.90
20891;DHT22;10605;52.968;8.844;2022-10-16T18:45:22;11.10;99.90
20891;DHT22;10605;52.968;8.844;2022-10-16T18:47:47;11.10;99.90
20891;DHT22;10605;52.968;8.844;2022-10-16T18:50:13;11.10;99.90
20891;DHT22;10605;52.968;8.844;2022-10-16T18:52:49;11.10;99.90
20891;DHT22;10605;52.968;8.844;2022-10-16T18:55:18;11.10;99.90
20891;DHT22;10605;52.968;8.844;2022-10-16T18:57:48;11.10;99.90
20891;DHT22;10605;52.968;8.844;2022-10-16T19:00:14;11.00;99.90
20891;DHT22;10605;52.968;8.844;2022-10-16T19:02:42;11.10;99.90